createdAt,value
2017-11-01T00:00:00.588Z,101505.13
2017-11-01T00:02:28.267Z,101506.31
2017-11-01T00:04:55.887Z,101507.20
2017-11-01T00:07:22.770Z,101501.63
2017-11-01T00:09:49.650Z,101505.01
2017-11-01T00:12:18.003Z,101501.99
2017-11-01T00:14:44.886Z,101505.81
2017-11-01T00:17:11.772Z,101503.98
2017-11-01T00:19:39.427Z,101501.06
2017-11-01T00:22:06.309Z,101494.20
2017-11-01T00:24:33.177Z,101495.41
2017-11-01T00:27:00.055Z,101500.23
2017-11-01T00:29:27.693Z,101499.30
2017-11-01T00:31:54.633Z,101497.16
2017-11-01T00:34:21.535Z,101504.63
2017-11-01T00:36:48.406Z,101497.59
2017-11-01T00:39:15.314Z,101499.66
2017-11-01T00:41:42.212Z,101500.73
2017-11-01T00:44:09.103Z,101493.58
2017-11-01T00:46:36.768Z,101497.16
2017-11-01T00:49:03.642Z,101492.62
2017-11-01T00:51:31.248Z,101497.41
2017-11-01T00:53:58.113Z,101493.88
2017-11-01T00:56:24.977Z,101493.92
2017-11-01T00:58:52.587Z,101493.81
2017-11-01T01:01:19.457Z,101493.38
2017-11-01T01:03:46.346Z,101488.81
2017-11-01T01:06:13.955Z,101486.03
2017-11-01T01:08:40.869Z,101486.92
2017-11-01T01:11:07.741Z,101482.87
2017-11-01T01:13:34.665Z,101478.98
2017-11-01T01:16:01.591Z,101485.23
2017-11-01T01:18:28.503Z,101482.51
2017-11-01T01:20:55.384Z,101478.24
2017-11-01T01:23:22.273Z,101480.90
2017-11-01T01:25:49.124Z,101479.95
2017-11-01T01:28:16.758Z,101479.95
2017-11-01T01:30:43.676Z,101479.11
2017-11-01T01:33:10.606Z,101480.51
2017-11-01T01:35:37.489Z,101483.53
2017-11-01T01:38:05.087Z,101482.51
2017-11-01T01:40:31.978Z,101481.23
2017-11-01T01:42:58.926Z,101485.15
2017-11-01T01:45:25.818Z,101484.63
2017-11-01T01:47:53.468Z,101482.45
2017-11-01T01:50:20.360Z,101484.92
2017-11-01T01:52:47.246Z,101482.44
2017-11-01T01:55:14.151Z,101476.14
2017-11-01T01:57:41.098Z,101473.55
2017-11-01T02:00:08.768Z,101476.36
2017-11-01T02:02:36.433Z,101479.12
2017-11-01T02:05:03.343Z,101473.13
2017-11-01T02:07:30.244Z,101463.97
2017-11-01T02:09:57.104Z,101464.03
2017-11-01T02:12:23.991Z,101466.01
2017-11-01T02:14:51.606Z,101461.18
2017-11-01T02:17:18.482Z,101460.70
2017-11-01T02:19:45.439Z,101459.06
2017-11-01T02:22:12.379Z,101466.58
2017-11-01T02:24:39.297Z,101466.84
2017-11-01T02:27:06.234Z,101459.84
2017-11-01T02:29:33.174Z,101457.42
2017-11-01T02:32:00.086Z,101469.48
2017-11-01T02:34:26.992Z,101463.75
2017-11-01T02:36:53.939Z,101458.91
2017-11-01T02:39:21.637Z,101454.64
2017-11-01T02:41:48.547Z,101458.92
2017-11-01T02:44:15.487Z,101462.37
2017-11-01T02:46:42.426Z,101466.84
2017-11-01T02:49:09.398Z,101466.07
2017-11-01T02:51:36.360Z,101473.58
2017-11-01T02:54:03.327Z,101466.44
2017-11-01T02:56:30.276Z,101464.77
2017-11-01T02:58:57.942Z,101458.39
2017-11-01T03:01:25.642Z,101452.95
2017-11-01T03:03:52.611Z,101456.64
2017-11-01T03:06:19.552Z,101459.36
2017-11-01T03:08:47.239Z,101450.91
2017-11-01T03:11:14.919Z,101451.20
2017-11-01T03:13:42.588Z,101454.56
2017-11-01T03:16:10.280Z,101455.55
2017-11-01T03:18:37.994Z,101455.76
2017-11-01T03:21:04.951Z,101454.44
2017-11-01T03:23:31.911Z,101454.64
2017-11-01T03:25:58.854Z,101457.96
2017-11-01T03:28:26.520Z,101449.23
2017-11-01T03:30:54.217Z,101450.17
2017-11-01T03:33:21.125Z,101443.15
2017-11-01T03:35:48.074Z,101449.52
2017-11-01T03:38:15.016Z,101444.67
2017-11-01T03:40:41.986Z,101443.71
2017-11-01T03:43:08.978Z,101448.34
2017-11-01T03:45:35.927Z,101443.23
2017-11-01T03:48:03.612Z,101441.31
2017-11-01T03:50:30.553Z,101444.02
2017-11-01T03:52:57.537Z,101444.02
2017-11-01T03:55:24.545Z,101441.14
2017-11-01T03:57:51.476Z,101442.41
2017-11-01T04:00:18.468Z,101444.78
2017-11-01T04:02:45.406Z,101438.59
2017-11-01T04:05:12.307Z,101444.70
2017-11-01T04:07:39.971Z,101432.77
2017-11-01T04:10:07.646Z,101431.13
2017-11-01T04:12:34.538Z,101430.25
2017-11-01T04:15:01.512Z,101430.58
2017-11-01T04:17:28.396Z,101428.41
2017-11-01T04:19:56.317Z,101426.17
2017-11-01T04:22:23.196Z,101424.06
2017-11-01T04:24:50.081Z,101422.68
2017-11-01T04:27:17.037Z,101421.38
2017-11-01T04:29:44.749Z,101427.16
2017-11-01T04:32:11.667Z,101429.25
2017-11-01T04:34:39.358Z,101434.55
2017-11-01T04:37:07.042Z,101431.94
2017-11-01T04:39:34.758Z,101422.95
2017-11-01T04:42:01.686Z,101429.63
2017-11-01T04:44:29.363Z,101428.23
2017-11-01T04:46:57.066Z,101422.31
2017-11-01T04:49:23.974Z,101423.84
2017-11-01T04:51:52.773Z,101417.98
2017-11-01T04:54:19.775Z,101420.73
2017-11-01T04:56:47.436Z,101423.33
2017-11-01T04:59:14.371Z,101428.81
2017-11-01T05:01:43.348Z,101433.70
2017-11-01T05:04:10.289Z,101429.12
2017-11-01T05:06:45.403Z,101429.53
2017-11-01T05:09:12.378Z,101430.00
2017-11-01T05:11:39.317Z,101430.12
2017-11-01T05:14:12.352Z,101430.16
2017-11-01T05:16:44.160Z,101429.63
2017-11-01T05:19:13.699Z,101428.17
2017-11-01T05:21:40.691Z,101421.27
2017-11-01T05:24:07.635Z,101426.16
2017-11-01T05:26:34.560Z,101425.20
2017-11-01T05:29:02.266Z,101430.50
2017-11-01T05:31:29.187Z,101436.41
2017-11-01T05:33:56.165Z,101431.39
2017-11-01T05:36:23.878Z,101433.75
2017-11-01T05:38:50.895Z,101431.58
2017-11-01T05:41:17.915Z,101427.80
2017-11-01T05:43:44.887Z,101431.03
2017-11-01T05:46:11.788Z,101431.17
2017-11-01T05:48:38.765Z,101437.97
2017-11-01T05:51:06.431Z,101432.24
2017-11-01T05:53:33.336Z,101424.42
2017-11-01T05:56:00.297Z,101424.90
2017-11-01T05:58:27.226Z,101424.84
2017-11-01T06:00:54.923Z,101429.60
2017-11-01T06:03:21.895Z,101428.69
2017-11-01T06:05:48.834Z,101438.36
2017-11-01T06:08:16.494Z,101442.48
2017-11-01T06:10:43.460Z,101438.05
2017-11-01T06:13:10.417Z,101449.29
2017-11-01T06:15:37.348Z,101448.48
2017-11-01T06:18:04.305Z,101449.80
2017-11-01T06:20:31.243Z,101451.25
2017-11-01T06:22:58.927Z,101456.25
2017-11-01T06:25:25.872Z,101453.05
2017-11-01T06:27:52.860Z,101453.44
2017-11-01T06:30:19.788Z,101456.12
2017-11-01T06:32:46.764Z,101456.03
2017-11-01T06:35:14.456Z,101465.00
2017-11-01T06:37:44.051Z,101463.11
2017-11-01T06:40:11.044Z,101464.66
2017-11-01T06:42:38.687Z,101462.92
2017-11-01T06:45:05.663Z,101466.88
2017-11-01T06:47:32.598Z,101474.29
2017-11-01T06:49:59.552Z,101476.63
2017-11-01T06:52:26.527Z,101480.00
2017-11-01T06:54:53.469Z,101483.61
2017-11-01T06:57:20.365Z,101477.49
2017-11-01T06:59:47.280Z,101483.08
2017-11-01T07:02:14.160Z,101481.71
2017-11-01T07:04:41.037Z,101480.80
2017-11-01T07:07:07.940Z,101478.05
2017-11-01T07:09:35.577Z,101480.69
2017-11-01T07:12:02.522Z,101481.19
2017-11-01T07:14:29.443Z,101487.92
2017-11-01T07:16:56.323Z,101487.98
2017-11-01T07:19:23.944Z,101497.98
2017-11-01T07:21:50.906Z,101503.64
2017-11-01T07:24:17.868Z,101504.44
2017-11-01T07:26:44.750Z,101500.03
2017-11-01T07:29:11.729Z,101499.81
2017-11-01T07:31:38.597Z,101502.16
2017-11-01T07:34:06.780Z,101496.90
2017-11-01T07:36:35.897Z,101505.63
2017-11-01T07:39:02.908Z,101516.75
2017-11-01T07:41:29.834Z,101515.51
2017-11-01T07:43:57.456Z,101512.71
2017-11-01T07:46:24.324Z,101520.08
2017-11-01T07:48:51.227Z,101521.02
2017-11-01T07:51:18.150Z,101521.41
2017-11-01T07:53:45.027Z,101512.97
2017-11-01T07:56:11.906Z,101515.22
2017-11-01T07:58:38.798Z,101517.28
2017-11-01T08:01:06.401Z,101516.85
2017-11-01T08:03:33.279Z,101520.28
2017-11-01T08:06:00.199Z,101517.64
2017-11-01T08:08:27.229Z,101526.77
2017-11-01T08:10:54.116Z,101523.10
2017-11-01T08:13:21.784Z,101528.38
2017-11-01T08:15:48.650Z,101532.70
2017-11-01T08:18:15.569Z,101527.34
2017-11-01T08:20:42.476Z,101531.16
2017-11-01T08:23:10.121Z,101528.52
2017-11-01T08:25:37.003Z,101528.00
2017-11-01T08:28:03.895Z,101528.80
2017-11-01T08:30:31.538Z,101530.45
2017-11-01T08:32:58.434Z,101531.19
2017-11-01T08:35:26.075Z,101529.72
2017-11-01T08:37:52.934Z,101527.56
2017-11-01T08:40:19.810Z,101526.64
2017-11-01T08:42:46.706Z,101525.66
2017-11-01T08:45:13.556Z,101520.89
2017-11-01T08:47:41.213Z,101523.48
2017-11-01T08:50:08.126Z,101526.13
2017-11-01T08:52:35.047Z,101518.18
2017-11-01T08:55:01.932Z,101513.66
2017-11-01T08:57:31.638Z,101511.78
2017-11-01T08:59:58.665Z,101510.83
2017-11-01T09:02:25.569Z,101509.39
2017-11-01T09:04:52.485Z,101515.02
2017-11-01T09:07:19.394Z,101508.40
2017-11-01T09:09:46.285Z,101494.23
2017-11-01T09:12:13.190Z,101498.93
2017-11-01T09:14:40.060Z,101498.93
2017-11-01T09:17:06.924Z,101498.41
2017-11-01T09:19:33.813Z,101497.39
2017-11-01T09:22:01.442Z,101503.70
2017-11-01T09:24:28.310Z,101499.09
2017-11-01T09:26:55.208Z,101501.16
2017-11-01T09:29:22.843Z,101488.27
2017-11-01T09:31:49.708Z,101489.36
2017-11-01T09:34:16.579Z,101481.78
2017-11-01T09:36:43.485Z,101478.58
2017-11-01T09:39:10.375Z,101471.08
2017-11-01T09:41:37.258Z,101479.06
2017-11-01T09:44:04.135Z,101470.19
2017-11-01T09:46:31.010Z,101464.33
2017-11-01T09:48:57.867Z,101472.06
2017-11-01T09:51:24.741Z,101472.70
2017-11-01T09:53:52.436Z,101474.31
2017-11-01T09:56:20.050Z,101482.72
2017-11-01T09:58:46.963Z,101485.92
2017-11-01T10:01:13.922Z,101480.44
2017-11-01T10:03:40.796Z,101472.03
2017-11-01T10:06:08.403Z,101479.99
2017-11-01T10:08:35.300Z,101481.60
2017-11-01T10:11:02.163Z,101486.12
2017-11-01T10:13:29.033Z,101487.19
2017-11-01T10:15:55.921Z,101480.92
2017-11-01T10:18:23.557Z,101472.38
2017-11-01T10:20:50.522Z,101471.15
2017-11-01T10:23:17.419Z,101469.17
2017-11-01T10:25:45.030Z,101467.53
2017-11-01T10:28:11.909Z,101470.69
2017-11-01T10:30:38.811Z,101480.59
2017-11-01T10:48:13.195Z,101458.36
2017-11-01T10:50:40.137Z,101460.95
2017-11-01T10:53:07.071Z,101452.81
2017-11-01T10:55:35.631Z,101443.28
2017-11-01T10:58:04.005Z,101446.80
2017-11-01T11:00:30.946Z,101438.83
2017-11-01T11:03:00.687Z,101439.55
2017-11-01T11:05:27.598Z,101445.38
2017-11-01T11:07:55.406Z,101441.92
2017-11-01T11:10:22.370Z,101444.77
2017-11-01T11:12:49.300Z,101451.06
2017-11-01T11:15:16.250Z,101454.89
2017-11-01T11:17:43.231Z,101449.62
2017-11-01T11:20:10.182Z,101451.86
2017-11-01T11:22:38.174Z,101445.70
2017-11-01T11:25:05.140Z,101448.73
2017-11-01T11:27:32.092Z,101438.81
2017-11-01T11:29:59.055Z,101445.55
2017-11-01T11:32:26.350Z,101440.87
2017-11-01T11:34:53.342Z,101427.98
2017-11-01T11:37:21.229Z,101419.69
2017-11-01T11:39:48.912Z,101419.27
2017-11-01T11:42:16.750Z,101419.92
2017-11-01T11:44:43.734Z,101413.02
2017-11-01T11:47:12.037Z,101411.64
2017-11-01T11:49:39.162Z,101403.30
2017-11-01T11:52:06.108Z,101403.96
2017-11-01T11:54:33.059Z,101398.31
2017-11-01T11:57:00.795Z,101397.46
2017-11-01T11:59:27.757Z,101395.36
2017-11-01T12:01:54.811Z,101394.39
2017-11-01T12:04:21.771Z,101390.38
2017-11-01T12:06:48.852Z,101394.61
2017-11-01T12:09:16.910Z,101386.26
2017-11-01T12:11:44.555Z,101383.47
2017-11-01T12:14:11.645Z,101381.63
2017-11-01T12:16:39.088Z,101378.18
2017-11-01T12:19:06.414Z,101372.05
2017-11-01T12:21:33.493Z,101367.20
2017-11-01T12:24:00.461Z,101362.20
2017-11-01T12:26:27.470Z,101360.31
2017-11-01T12:28:55.122Z,101356.61
2017-11-01T12:31:22.002Z,101365.84
2017-11-01T12:33:48.918Z,101353.73
2017-11-01T12:36:15.872Z,101347.00
2017-11-01T12:38:42.830Z,101335.13
2017-11-01T12:41:09.735Z,101328.05
2017-11-01T12:43:36.656Z,101322.98
2017-11-01T12:46:03.561Z,101318.76
2017-11-01T12:48:30.464Z,101318.92
2017-11-01T12:50:57.409Z,101310.02
2017-11-01T12:53:25.055Z,101309.47
2017-11-01T12:55:51.931Z,101303.88
2017-11-01T12:58:18.836Z,101300.81
2017-11-01T13:00:45.756Z,101298.58
2017-11-01T13:03:12.696Z,101303.71
2017-11-01T13:05:39.729Z,101295.35
2017-11-01T13:08:06.688Z,101301.84
2017-11-01T13:10:33.595Z,101307.04
2017-11-01T13:13:00.555Z,101303.50
2017-11-01T13:15:27.518Z,101303.52
2017-11-01T13:17:55.490Z,101300.34
2017-11-01T13:20:22.447Z,101295.35
2017-11-01T13:22:49.366Z,101299.19
2017-11-01T13:25:16.686Z,101297.63
2017-11-01T13:27:43.728Z,101289.06
2017-11-01T13:30:11.451Z,101290.03
2017-11-01T13:32:39.250Z,101290.83
2017-11-01T13:35:06.164Z,101295.50
2017-11-01T13:37:33.106Z,101283.89
2017-11-01T13:40:00.742Z,101279.38
2017-11-01T13:42:27.654Z,101284.52
2017-11-01T13:44:55.306Z,101281.45
2017-11-01T13:47:22.181Z,101276.91
2017-11-01T13:49:49.089Z,101273.80
2017-11-01T13:52:16.019Z,101274.63
2017-11-01T13:54:43.670Z,101272.05
2017-11-01T13:57:10.619Z,101270.63
2017-11-01T13:59:37.519Z,101262.78
2017-11-01T14:02:04.452Z,101268.61
2017-11-01T14:04:31.430Z,101254.09
2017-11-01T14:06:59.125Z,101257.72
2017-11-01T14:09:26.062Z,101257.23
2017-11-01T14:11:52.976Z,101250.33
2017-11-01T14:14:19.875Z,101246.38
2017-11-01T14:16:46.799Z,101241.02
2017-11-01T14:19:14.026Z,101238.86
2017-11-01T14:21:45.645Z,101233.41
2017-11-01T14:24:17.972Z,101230.84
2017-11-01T14:26:45.294Z,101228.72
2017-11-01T14:29:12.549Z,101229.17
2017-11-01T14:31:40.475Z,101231.89
2017-11-01T14:34:07.453Z,101229.47
2017-11-01T14:36:34.444Z,101220.16
2017-11-01T14:39:01.583Z,101219.89
2017-11-01T14:41:28.483Z,101218.86
2017-11-01T14:43:56.474Z,101230.33
2017-11-01T14:46:23.439Z,101228.94
2017-11-01T14:48:51.123Z,101230.16
2017-11-01T14:51:18.862Z,101222.31
2017-11-01T14:53:45.781Z,101227.13
2017-11-01T14:56:12.805Z,101222.05
2017-11-01T14:58:40.152Z,101221.55
2017-11-01T15:01:07.756Z,101223.25
2017-11-01T15:03:34.839Z,101213.92
2017-11-01T15:06:01.798Z,101215.10
2017-11-01T15:08:28.730Z,101210.89
2017-11-01T15:10:55.677Z,101206.98
2017-11-01T15:13:23.378Z,101209.55
2017-11-01T15:15:51.109Z,101204.97
2017-11-01T15:18:18.133Z,101208.09
2017-11-01T15:20:45.100Z,101216.41
2017-11-01T15:23:12.059Z,101217.49
2017-11-01T15:25:38.969Z,101215.05
2017-11-01T15:28:05.871Z,101218.23
2017-11-01T15:30:33.016Z,101210.30
2017-11-01T15:32:59.967Z,101212.06
2017-11-01T15:35:26.911Z,101210.48
2017-11-01T15:37:54.567Z,101203.05
2017-11-01T15:40:21.550Z,101205.70
2017-11-01T15:42:49.211Z,101199.03
2017-11-01T15:45:16.132Z,101195.67
2017-11-01T15:47:43.140Z,101191.84
2017-11-01T15:50:10.198Z,101189.77
2017-11-01T15:52:37.162Z,101186.78
2017-11-01T15:55:04.401Z,101194.36
2017-11-01T15:57:31.382Z,101197.64
2017-11-01T15:59:58.330Z,101203.58
2017-11-01T16:02:26.250Z,101208.17
2017-11-01T16:04:55.703Z,101202.94
2017-11-01T16:07:23.731Z,101207.00
2017-11-01T16:09:52.644Z,101201.87
2017-11-01T16:12:20.570Z,101208.47
2017-11-01T16:14:47.663Z,101203.28
2017-11-01T16:17:14.671Z,101199.82
2017-11-01T16:19:41.722Z,101202.96
2017-11-01T16:22:08.798Z,101189.07
2017-11-01T16:24:35.776Z,101185.93
2017-11-01T16:27:02.737Z,101183.28
2017-11-01T16:29:29.719Z,101174.64
2017-11-01T16:31:56.685Z,101182.05
2017-11-01T16:34:23.680Z,101180.95
2017-11-01T16:36:50.642Z,101179.86
2017-11-01T16:39:17.614Z,101186.28
2017-11-01T16:41:44.624Z,101178.42
2017-11-01T16:44:11.667Z,101174.60
2017-11-01T16:46:38.795Z,101170.42
2017-11-01T16:49:06.706Z,101176.13
2017-11-01T16:51:33.754Z,101174.64
2017-11-01T16:54:01.350Z,101163.05
2017-11-01T16:56:28.336Z,101166.59
2017-11-01T16:58:55.274Z,101163.34
2017-11-01T17:01:22.292Z,101151.36
2017-11-01T17:03:49.224Z,101155.86
2017-11-01T17:06:16.240Z,101155.35
2017-11-01T17:08:43.959Z,101153.28
2017-11-01T17:11:11.004Z,101154.49
2017-11-01T17:13:37.946Z,101154.66
2017-11-01T17:16:05.681Z,101148.74
2017-11-01T17:18:33.102Z,101145.56
2017-11-01T17:21:01.458Z,101143.53
2017-11-01T17:23:29.222Z,101145.44
2017-11-01T17:25:57.008Z,101144.11
2017-11-01T17:28:24.096Z,101138.76
2017-11-01T17:30:51.335Z,101142.39
2017-11-01T17:33:18.360Z,101150.77
2017-11-01T17:35:46.077Z,101152.50
2017-11-01T17:38:13.202Z,101155.79
2017-11-01T17:40:40.934Z,101145.08
2017-11-01T17:43:08.085Z,101145.30
2017-11-01T17:45:35.542Z,101142.83
2017-11-01T17:48:03.249Z,101146.98
2017-11-01T17:50:30.210Z,101145.42
2017-11-01T17:52:57.691Z,101139.77
2017-11-01T17:55:24.731Z,101136.05
2017-11-01T17:57:51.688Z,101126.73
2017-11-01T18:00:19.376Z,101130.00
2017-11-01T18:02:46.489Z,101123.47
2017-11-01T18:05:13.698Z,101120.48
2017-11-01T18:07:40.995Z,101125.61
2017-11-01T18:10:08.297Z,101121.43
2017-11-01T18:12:36.671Z,101123.39
2017-11-01T18:15:04.463Z,101122.18
2017-11-01T18:17:31.378Z,101111.98
2017-11-01T18:19:58.944Z,101108.20
2017-11-01T18:22:26.690Z,101112.14
2017-11-01T18:24:57.491Z,101114.13
2017-11-01T18:27:25.143Z,101114.18
2017-11-01T18:29:53.233Z,101110.49
2017-11-01T18:32:20.229Z,101107.69
2017-11-01T18:34:50.140Z,101106.02
2017-11-01T18:37:18.451Z,101102.50
2017-11-01T18:39:46.262Z,101094.06
2017-11-01T18:42:14.674Z,101099.10
2017-11-01T18:44:44.385Z,101095.38
2017-11-01T18:47:13.261Z,101095.00
2017-11-01T18:49:42.174Z,101082.94
2017-11-01T18:52:12.351Z,101088.89
2017-11-01T18:54:41.644Z,101089.16
2017-11-01T18:57:10.062Z,101085.35
2017-11-01T18:59:38.856Z,101078.88
2017-11-01T19:02:06.207Z,101079.04
2017-11-01T19:04:34.190Z,101073.64
2017-11-01T19:07:01.593Z,101072.01
2017-11-01T19:09:28.848Z,101078.62
2017-11-01T19:11:56.621Z,101067.17
2017-11-01T19:14:23.821Z,101069.63
2017-11-01T19:16:50.759Z,101063.70
2017-11-01T19:19:18.634Z,101062.72
2017-11-01T19:21:45.909Z,101058.43
2017-11-01T19:24:14.618Z,101063.88
2017-11-01T19:26:44.298Z,101064.61
2017-11-01T19:29:15.336Z,101061.63
2017-11-01T19:31:46.021Z,101057.13
2017-11-01T19:34:14.627Z,101062.00
2017-11-01T19:36:43.377Z,101057.27
2017-11-01T19:39:13.061Z,101060.91
2017-11-01T19:41:41.957Z,101062.22
2017-11-01T19:44:10.721Z,101066.91
2017-11-01T19:46:39.598Z,101059.58
2017-11-01T19:49:09.273Z,101059.02
2017-11-01T19:51:38.161Z,101056.48
2017-11-01T19:54:07.149Z,101052.01
2017-11-01T19:56:36.472Z,101052.37
2017-11-01T19:59:06.206Z,101054.58
2017-11-01T20:01:35.933Z,101051.76
2017-11-01T20:04:05.879Z,101049.83
2017-11-01T20:06:34.946Z,101050.23
2017-11-01T20:09:04.344Z,101048.59
2017-11-01T20:11:33.622Z,101041.02
2017-11-01T20:14:02.513Z,101036.36
2017-11-01T20:16:31.527Z,101033.24
2017-11-01T20:19:00.567Z,101026.92
2017-11-01T20:21:29.479Z,101022.94
2017-11-01T20:23:58.113Z,101020.82
2017-11-01T20:26:26.877Z,101015.37
2017-11-01T20:28:56.557Z,101019.94
2017-11-01T20:31:25.267Z,101009.02
2017-11-01T20:33:54.177Z,101010.62
2017-11-01T20:36:22.958Z,101009.23
2017-11-01T20:38:51.958Z,101005.50
2017-11-01T20:41:20.945Z,100999.26
2017-11-01T20:43:49.806Z,100998.91
2017-11-01T20:46:18.744Z,101000.52
2017-11-01T20:48:47.681Z,100995.67
2017-11-01T20:51:16.446Z,100991.42
2017-11-01T20:53:45.134Z,100991.97
2017-11-01T20:56:14.088Z,100989.42
2017-11-01T20:58:43.697Z,100982.87
2017-11-01T21:01:13.545Z,100980.44
2017-11-01T21:03:42.613Z,100973.38
2017-11-01T21:06:11.591Z,100971.60
2017-11-01T21:08:40.465Z,100962.63
2017-11-01T21:11:10.110Z,100954.28
2017-11-01T21:13:38.824Z,100951.30
2017-11-01T21:16:07.780Z,100950.13
2017-11-01T21:18:36.527Z,100944.80
2017-11-01T21:21:06.034Z,100941.91
2017-11-01T21:23:34.131Z,100940.22
2017-11-01T21:26:01.677Z,100933.42
2017-11-01T21:28:29.382Z,100931.99
2017-11-01T21:30:57.182Z,100926.58
2017-11-01T21:33:24.184Z,100915.73
2017-11-01T21:35:52.690Z,100906.78
2017-11-01T21:38:19.842Z,100903.67
2017-11-01T21:40:47.796Z,100914.22
2017-11-01T21:43:15.484Z,100903.12
2017-11-01T21:45:42.564Z,100904.28
2017-11-01T21:48:09.567Z,100904.27
2017-11-01T21:50:36.517Z,100906.45
2017-11-01T21:53:03.522Z,100906.02
2017-11-01T21:55:30.574Z,100895.59
2017-11-01T21:57:58.224Z,100892.70
2017-11-01T22:00:25.172Z,100889.87
2017-11-01T22:02:52.321Z,100881.22
2017-11-01T22:05:19.362Z,100882.09
2017-11-01T22:07:46.314Z,100875.82
2017-11-01T22:10:14.813Z,100881.63
2017-11-01T22:12:41.839Z,100879.22
2017-11-01T22:15:08.872Z,100882.61
2017-11-01T22:17:36.120Z,100871.19
2017-11-01T22:20:03.123Z,100872.60
2017-11-01T22:22:30.052Z,100878.36
2017-11-01T22:24:57.024Z,100873.20
2017-11-01T22:27:23.971Z,100869.68
2017-11-01T22:29:50.918Z,100876.74
2017-11-01T22:32:18.601Z,100868.00
2017-11-01T22:34:46.204Z,100867.28
2017-11-01T22:37:13.191Z,100867.28
2017-11-01T22:39:40.121Z,100867.06
2017-11-01T22:42:07.034Z,100865.64
2017-11-01T22:44:33.959Z,100867.57
2017-11-01T22:47:00.952Z,100864.07
2017-11-01T22:49:27.925Z,100856.42
2017-11-01T22:51:54.855Z,100855.73
2017-11-01T22:54:21.769Z,100850.27
2017-11-01T22:56:48.794Z,100847.30
2017-11-01T22:59:15.772Z,100850.02
2017-11-01T23:01:42.704Z,100841.05
2017-11-01T23:04:09.671Z,100836.13
2017-11-01T23:06:36.583Z,100836.06
2017-11-01T23:09:03.643Z,100837.39
2017-11-01T23:11:30.579Z,100827.01
2017-11-01T23:13:57.673Z,100823.67
2017-11-01T23:16:24.755Z,100820.51
2017-11-01T23:18:51.681Z,100805.91
2017-11-01T23:21:18.612Z,100796.55
2017-11-01T23:23:45.549Z,100792.78
2017-11-01T23:26:12.460Z,100800.22
2017-11-01T23:28:41.366Z,100795.56
2017-11-01T23:31:11.394Z,100799.73
2017-11-01T23:33:38.469Z,100785.19
2017-11-01T23:36:05.383Z,100783.23
2017-11-01T23:38:32.277Z,100782.20
2017-11-01T23:40:59.202Z,100774.05
2017-11-01T23:43:26.643Z,100770.86
2017-11-01T23:45:53.801Z,100764.27
2017-11-01T23:48:20.737Z,100755.16
2017-11-01T23:50:47.655Z,100749.42
2017-11-01T23:53:14.983Z,100747.14
2017-11-01T23:55:41.955Z,100744.30
2017-11-01T23:58:08.912Z,100747.32
